createdAt,value
2023-01-17T00:00:12.054Z,2.53
2023-01-17T00:02:17.454Z,2.17
2023-01-17T00:04:34.739Z,2.40
2023-01-17T00:06:51.990Z,3.47
2023-01-17T00:09:17.259Z,3.75
2023-01-17T00:11:22.121Z,1.92
2023-01-17T00:13:27.269Z,2.67
2023-01-17T00:17:37.446Z,1.53
2023-01-17T00:19:54.668Z,2.65
2023-01-17T00:22:12.029Z,2.13
2023-01-17T00:24:31.846Z,1.88
2023-01-17T00:26:36.749Z,3.83
2023-01-17T00:28:40.726Z,1.77
2023-01-17T00:30:42.992Z,5.90
2023-01-17T00:32:44.993Z,1.55
2023-01-17T00:34:47.141Z,5.15
2023-01-17T00:36:49.196Z,3.67
2023-01-17T00:38:51.709Z,2.78
2023-01-17T00:41:02.580Z,4.13
2023-01-17T00:43:20.385Z,5.10
2023-01-17T00:45:37.637Z,4.25
2023-01-17T00:47:56.902Z,3.95
2023-01-17T00:50:14.193Z,2.97
2023-01-17T00:52:31.457Z,2.33
2023-01-17T00:54:48.853Z,1.98
2023-01-17T00:57:09.675Z,2.22
2023-01-17T00:59:26.918Z,2.85
2023-01-17T01:01:44.440Z,3.00
2023-01-17T01:04:01.702Z,1.77
2023-01-17T01:06:19.983Z,2.95
2023-01-17T01:08:40.608Z,2.08
2023-01-17T01:10:58.389Z,1.88
2023-01-17T01:13:18.231Z,3.63
2023-01-17T01:15:35.552Z,2.15
2023-01-17T01:17:52.863Z,2.50
2023-01-17T01:20:10.080Z,2.97
2023-01-17T01:22:27.609Z,2.67
2023-01-17T01:24:45.505Z,1.38
2023-01-17T01:27:02.860Z,2.28
2023-01-17T01:29:22.822Z,2.75
2023-01-17T01:31:40.104Z,3.28
2023-01-17T01:33:44.933Z,2.25
2023-01-17T01:35:54.356Z,2.05
2023-01-17T01:37:59.246Z,2.20
2023-01-17T01:40:04.591Z,1.27
2023-01-17T01:42:16.321Z,1.58
2023-01-17T01:44:49.039Z,2.97
2023-01-17T01:46:54.092Z,1.48
2023-01-17T01:49:01.764Z,2.20
2023-01-17T01:51:12.116Z,2.72
2023-01-17T01:53:17.546Z,1.92
2023-01-17T01:55:26.744Z,1.13
2023-01-17T01:57:35.243Z,1.80
2023-01-17T01:59:44.790Z,2.80
2023-01-17T02:01:54.377Z,2.03
2023-01-17T02:04:01.153Z,1.20
2023-01-17T02:06:15.434Z,2.08
2023-01-17T02:08:24.189Z,1.60
2023-01-17T02:10:29.207Z,1.02
2023-01-17T02:12:34.556Z,1.20
2023-01-17T02:14:39.404Z,2.45
2023-01-17T02:17:00.233Z,1.60
2023-01-17T02:19:29.124Z,1.83
2023-01-17T02:21:37.941Z,2.35
2023-01-17T02:24:29.321Z,3.63
2023-01-17T02:26:53.306Z,2.88
2023-01-17T02:29:15.004Z,3.08
2023-01-17T02:31:30.287Z,2.08
2023-01-17T02:33:42.138Z,4.10
2023-01-17T02:35:57.405Z,3.35
2023-01-17T02:38:11.348Z,3.45
2023-01-17T02:40:21.132Z,3.58
2023-01-17T02:42:31.690Z,3.58
2023-01-17T02:44:43.560Z,2.30
2023-01-17T02:46:55.977Z,4.20
2023-01-17T02:49:01.280Z,4.93
2023-01-17T02:51:39.128Z,1.55
2023-01-17T02:53:55.994Z,5.07
2023-01-17T02:56:11.511Z,2.67
2023-01-17T02:58:31.533Z,3.75
2023-01-17T03:00:43.418Z,3.22
2023-01-17T03:03:00.439Z,2.83
2023-01-17T03:05:09.065Z,2.50
2023-01-17T03:07:18.981Z,3.53
2023-01-17T03:09:24.713Z,3.72
2023-01-17T03:11:30.059Z,3.40
2023-01-17T03:15:39.524Z,5.10
2023-01-17T03:17:49.588Z,4.22
2023-01-17T03:19:57.153Z,4.35
2023-01-17T03:22:01.970Z,4.55
2023-01-17T03:24:07.369Z,2.78
2023-01-17T03:26:12.159Z,2.42
2023-01-17T03:28:17.005Z,2.42
2023-01-17T03:30:23.195Z,2.28
2023-01-17T03:32:28.130Z,5.07
2023-01-17T03:34:32.968Z,3.45
2023-01-17T03:36:40.535Z,3.55
2023-01-17T03:38:45.393Z,3.85
2023-01-17T03:40:50.304Z,3.75
2023-01-17T03:42:55.205Z,3.40
2023-01-17T03:45:00.017Z,3.53
2023-01-17T03:47:12.073Z,2.22
2023-01-17T03:49:17.458Z,4.40
2023-01-17T03:53:29.776Z,4.75
2023-01-17T03:55:34.635Z,4.95
2023-01-17T03:57:39.553Z,3.28
2023-01-17T03:59:45.113Z,4.03
2023-01-17T04:01:50.321Z,3.35
2023-01-17T04:03:55.506Z,3.67
2023-01-17T04:08:06.766Z,5.38
2023-01-17T04:10:14.558Z,4.53
2023-01-17T04:12:19.538Z,3.15
2023-01-17T04:14:24.347Z,6.07
2023-01-17T04:16:31.996Z,5.53
2023-01-17T04:18:36.979Z,3.35
2023-01-17T04:20:43.558Z,3.33
2023-01-17T04:22:49.545Z,3.88
2023-01-17T04:24:54.330Z,5.80
2023-01-17T04:27:02.595Z,3.50
2023-01-17T04:29:07.837Z,6.65
2023-01-17T04:31:17.061Z,5.95
2023-01-17T04:33:22.044Z,2.75
2023-01-17T04:35:27.298Z,3.92
2023-01-17T04:39:37.227Z,4.82
2023-01-17T04:43:49.220Z,3.92
2023-01-17T04:45:57.976Z,6.15
2023-01-17T04:48:05.897Z,4.68
2023-01-17T04:50:13.557Z,4.75
2023-01-17T04:52:18.828Z,5.18
2023-01-17T04:54:23.655Z,6.25
2023-01-17T04:56:28.456Z,6.13
2023-01-17T04:58:33.803Z,6.78
2023-01-17T05:02:45.820Z,4.47
2023-01-17T05:04:51.291Z,5.75
2023-01-17T05:06:56.131Z,4.80
2023-01-17T05:09:02.994Z,5.97
2023-01-17T05:11:07.968Z,4.25
2023-01-17T05:13:12.862Z,5.20
2023-01-17T05:15:17.737Z,8.20
2023-01-17T05:17:25.317Z,3.50
2023-01-17T05:19:30.437Z,5.72
2023-01-17T05:21:35.213Z,7.53
2023-01-17T05:23:40.684Z,6.68
2023-01-17T05:25:45.775Z,7.07
2023-01-17T05:27:50.668Z,5.97
2023-01-17T05:29:55.657Z,7.57
2023-01-17T05:32:00.775Z,5.50
2023-01-17T05:36:13.117Z,9.43
2023-01-17T05:38:18.362Z,5.45
2023-01-17T05:40:27.887Z,5.50
2023-01-17T05:42:32.669Z,5.97
2023-01-17T05:44:38.776Z,3.40
2023-01-17T05:46:43.765Z,4.93
2023-01-17T05:48:50.867Z,8.95
2023-01-17T05:50:58.914Z,6.70
2023-01-17T05:53:05.776Z,4.15
2023-01-17T05:55:11.611Z,4.75
2023-01-17T05:57:18.934Z,5.55
2023-01-17T05:59:36.461Z,6.63
2023-01-17T06:01:42.197Z,8.13
2023-01-17T06:03:46.992Z,4.90
2023-01-17T06:05:52.943Z,6.22
2023-01-17T06:08:00.470Z,6.40
2023-01-17T06:10:05.431Z,6.65
2023-01-17T06:12:10.468Z,5.00
2023-01-17T06:14:15.436Z,4.68
2023-01-17T06:16:20.258Z,4.65
2023-01-17T06:18:25.176Z,7.18
2023-01-17T06:20:30.139Z,7.15
2023-01-17T06:22:35.540Z,7.78
2023-01-17T06:24:43.198Z,6.75
2023-01-17T06:26:50.537Z,4.43
2023-01-17T06:28:55.360Z,7.88
2023-01-17T06:31:00.272Z,7.45
2023-01-17T06:33:05.495Z,5.80
2023-01-17T06:35:10.980Z,7.13
2023-01-17T06:37:15.852Z,7.72
2023-01-17T06:39:20.703Z,7.25
2023-01-17T06:41:28.248Z,7.35
2023-01-17T06:43:34.440Z,6.65
2023-01-17T06:45:42.529Z,5.75
2023-01-17T06:47:48.103Z,6.55
2023-01-17T06:49:52.948Z,4.80
2023-01-17T06:51:57.957Z,5.90
2023-01-17T06:56:08.528Z,5.18
2023-01-17T06:58:15.931Z,4.60
2023-01-17T07:00:21.652Z,6.18
2023-01-17T07:02:26.540Z,6.18
2023-01-17T07:04:31.331Z,5.85
2023-01-17T07:06:38.717Z,5.07
2023-01-17T07:08:43.534Z,4.35
2023-01-17T07:10:51.234Z,4.93
2023-01-17T07:13:01.414Z,8.23
2023-01-17T07:15:09.921Z,6.15
2023-01-17T07:17:14.715Z,8.18
2023-01-17T07:19:19.614Z,6.47
2023-01-17T07:21:24.528Z,8.35
2023-01-17T07:23:29.821Z,7.80
2023-01-17T07:25:34.761Z,8.43
2023-01-17T07:27:39.581Z,9.55
2023-01-17T07:29:44.440Z,8.68
2023-01-17T07:31:52.001Z,10.48
2023-01-17T07:33:56.795Z,7.80
2023-01-17T07:36:01.678Z,7.60
2023-01-17T07:38:11.480Z,6.85
2023-01-17T07:40:17.501Z,7.55
2023-01-17T07:42:24.105Z,6.53
2023-01-17T07:44:29.382Z,8.05
2023-01-17T07:46:34.207Z,11.05
2023-01-17T07:48:41.705Z,6.53
2023-01-17T07:50:47.002Z,6.18
2023-01-17T07:52:53.034Z,6.75
2023-01-17T07:57:02.828Z,9.10
2023-01-17T07:59:07.636Z,6.90
2023-01-17T08:01:14.325Z,7.05
2023-01-17T08:03:20.745Z,6.28
2023-01-17T08:05:28.722Z,7.95
2023-01-17T08:07:33.614Z,6.45
2023-01-17T08:09:38.479Z,8.95
2023-01-17T08:11:43.334Z,6.28
2023-01-17T08:13:48.202Z,7.22
2023-01-17T08:15:54.623Z,6.25
2023-01-17T08:18:00.472Z,11.77
2023-01-17T08:20:06.294Z,7.88
2023-01-17T08:22:14.989Z,6.47
2023-01-17T08:24:19.938Z,7.63
2023-01-17T08:26:25.239Z,4.95
2023-01-17T08:28:30.150Z,10.73
2023-01-17T08:30:35.184Z,5.38
2023-01-17T08:34:45.881Z,5.55
2023-01-17T08:36:51.112Z,6.57
2023-01-17T08:41:04.154Z,4.45
2023-01-17T08:45:15.330Z,7.57
2023-01-17T08:47:20.189Z,6.10
2023-01-17T08:49:25.885Z,4.70
2023-01-17T08:51:33.055Z,8.75
2023-01-17T08:53:38.589Z,9.63
2023-01-17T08:55:46.493Z,6.20
2023-01-17T08:57:56.350Z,4.72
2023-01-17T09:00:01.656Z,8.98
2023-01-17T09:02:14.883Z,5.20
2023-01-17T09:04:20.004Z,12.23
2023-01-17T09:08:30.581Z,11.40
2023-01-17T09:10:35.470Z,5.70
2023-01-17T09:12:43.147Z,3.95
2023-01-17T09:14:48.069Z,4.35
2023-01-17T09:16:53.126Z,5.18
2023-01-17T09:18:58.462Z,8.07
2023-01-17T09:21:13.176Z,5.68
2023-01-17T09:23:18.047Z,6.65
2023-01-17T09:25:22.938Z,7.47
2023-01-17T09:27:27.894Z,6.88
2023-01-17T09:29:35.387Z,6.72
2023-01-17T09:31:40.541Z,9.32
2023-01-17T09:35:50.332Z,10.95
2023-01-17T09:40:02.112Z,6.18
2023-01-17T09:42:21.369Z,5.47
2023-01-17T09:44:30.625Z,4.95
2023-01-17T09:46:42.321Z,6.38
2023-01-17T09:48:48.868Z,6.57
2023-01-17T09:50:57.641Z,4.45
2023-01-17T09:53:05.634Z,4.50
2023-01-17T09:55:17.204Z,4.53
2023-01-17T09:57:39.011Z,5.70
2023-01-17T10:00:03.194Z,6.10
2023-01-17T10:02:32.912Z,5.28
2023-01-17T10:04:56.756Z,5.75
2023-01-17T10:07:16.215Z,5.72
2023-01-17T10:09:40.645Z,4.68
2023-01-17T10:11:59.049Z,4.32
2023-01-17T10:14:15.698Z,3.15
2023-01-17T10:16:34.820Z,4.13
2023-01-17T10:19:07.910Z,6.28
2023-01-17T10:21:17.320Z,4.68
2023-01-17T10:23:49.596Z,4.32
2023-01-17T10:25:55.452Z,8.60
2023-01-17T10:28:15.448Z,7.68
2023-01-17T10:30:26.024Z,5.38
2023-01-17T10:32:35.030Z,4.72
2023-01-17T10:34:51.076Z,5.32
2023-01-17T10:37:01.197Z,6.40
2023-01-17T10:39:20.800Z,3.83
2023-01-17T10:41:31.218Z,3.97
2023-01-17T10:43:47.942Z,6.13
2023-01-17T10:45:56.865Z,5.32
2023-01-17T10:48:12.195Z,2.95
2023-01-17T10:50:20.017Z,4.22
2023-01-17T10:52:39.135Z,4.28
2023-01-17T10:55:05.253Z,3.50
2023-01-17T10:57:17.737Z,4.32
2023-01-17T10:59:31.880Z,3.83
2023-01-17T11:01:36.956Z,3.55
2023-01-17T11:03:45.023Z,3.95
2023-01-17T11:06:19.135Z,5.72
2023-01-17T11:08:24.284Z,4.53
2023-01-17T11:10:44.724Z,5.30
2023-01-17T11:12:50.399Z,4.35
2023-01-17T11:15:03.144Z,2.75
2023-01-17T11:17:11.573Z,2.95
2023-01-17T11:19:20.292Z,3.75
2023-01-17T11:21:28.682Z,4.13
2023-01-17T11:23:36.086Z,2.90
2023-01-17T11:25:41.661Z,2.88
2023-01-17T11:28:00.851Z,4.00
2023-01-17T11:30:16.023Z,2.30
2023-01-17T11:32:32.912Z,3.17
2023-01-17T11:34:38.649Z,2.22
2023-01-17T11:36:46.427Z,3.70
2023-01-17T11:38:59.196Z,4.93
2023-01-17T11:41:22.119Z,3.40
2023-01-17T11:43:28.454Z,4.15
2023-01-17T11:45:34.739Z,5.20
2023-01-17T11:47:39.619Z,4.82
2023-01-17T11:49:46.345Z,4.68
2023-01-17T11:51:56.356Z,4.88
2023-01-17T11:54:11.800Z,5.47
2023-01-17T11:56:23.487Z,5.40
2023-01-17T11:58:30.557Z,4.55
2023-01-17T12:00:46.043Z,3.50
2023-01-17T12:03:20.856Z,2.97
2023-01-17T12:05:42.775Z,4.45
2023-01-17T12:08:01.045Z,6.05
2023-01-17T12:10:15.605Z,2.60
2023-01-17T12:12:41.414Z,4.78
2023-01-17T12:14:58.964Z,4.53
2023-01-17T12:17:16.452Z,4.78
2023-01-17T12:19:36.712Z,4.63
2023-01-17T12:21:52.414Z,7.25
2023-01-17T12:24:38.625Z,5.40
2023-01-17T12:26:50.012Z,4.03
2023-01-17T12:29:10.121Z,5.40
2023-01-17T12:31:28.689Z,4.95
2023-01-17T12:33:41.527Z,3.63
2023-01-17T12:35:53.020Z,3.70
2023-01-17T12:38:05.269Z,4.28
2023-01-17T12:40:26.478Z,5.72
2023-01-17T12:42:35.918Z,4.97
2023-01-17T12:44:50.281Z,6.63
2023-01-17T12:47:02.718Z,5.25
2023-01-17T12:49:22.509Z,4.53
2023-01-17T12:51:31.913Z,4.63
2023-01-17T12:53:44.862Z,3.20
2023-01-17T12:56:03.051Z,6.15
2023-01-17T12:58:16.039Z,4.90
2023-01-17T13:00:23.571Z,7.60
2023-01-17T13:02:35.215Z,5.53
2023-01-17T13:04:58.101Z,6.90
2023-01-17T13:07:11.793Z,3.50
2023-01-17T13:09:23.554Z,4.65
2023-01-17T13:11:35.363Z,3.50
2023-01-17T13:13:41.361Z,4.50
2023-01-17T13:15:48.154Z,7.88
2023-01-17T13:17:57.859Z,3.83
2023-01-17T13:20:10.533Z,3.47
2023-01-17T13:22:21.877Z,2.67
2023-01-17T13:24:36.463Z,2.90
2023-01-17T13:27:02.250Z,3.22
2023-01-17T13:29:16.707Z,3.95
2023-01-17T13:31:38.899Z,2.25
2023-01-17T13:33:53.434Z,3.50
2023-01-17T13:36:12.521Z,3.42
2023-01-17T13:38:55.085Z,5.80
2023-01-17T13:41:05.297Z,3.80
2023-01-17T13:43:21.170Z,4.50
2023-01-17T13:45:29.220Z,4.68
2023-01-17T13:47:44.409Z,3.55
2023-01-17T13:49:54.051Z,6.55
2023-01-17T13:52:12.394Z,4.53
2023-01-17T13:54:35.174Z,3.90
2023-01-17T13:56:40.041Z,5.20
2023-01-17T13:59:07.026Z,7.20
2023-01-17T14:01:14.678Z,4.65
2023-01-17T14:03:54.313Z,4.85
2023-01-17T14:06:00.123Z,5.60
2023-01-17T14:08:07.403Z,4.22
2023-01-17T14:10:29.932Z,6.20
2023-01-17T14:12:35.917Z,4.85
2023-01-17T14:15:01.572Z,7.72
2023-01-17T14:17:45.047Z,3.60
2023-01-17T14:19:52.580Z,4.85
2023-01-17T14:22:25.600Z,5.43
2023-01-17T14:24:30.691Z,4.53
2023-01-17T14:26:50.196Z,5.68
2023-01-17T14:28:55.343Z,6.75
2023-01-17T14:31:04.126Z,5.88
2023-01-17T14:33:19.636Z,5.85
2023-01-17T14:35:26.033Z,4.45
2023-01-17T14:37:43.707Z,7.00
2023-01-17T14:39:50.068Z,6.70
2023-01-17T14:41:55.096Z,7.32
2023-01-17T14:44:02.295Z,5.70
2023-01-17T14:46:18.240Z,7.70
2023-01-17T14:48:25.353Z,4.88
2023-01-17T14:50:32.137Z,5.25
2023-01-17T14:52:37.147Z,5.80
2023-01-17T14:54:50.475Z,7.80
2023-01-17T14:56:55.313Z,5.47
2023-01-17T14:59:17.473Z,10.15
2023-01-17T15:01:25.231Z,8.85
2023-01-17T15:03:31.649Z,6.55
2023-01-17T15:05:36.700Z,5.72
2023-01-17T15:07:41.609Z,11.68
2023-01-17T15:09:50.266Z,11.77
2023-01-17T15:11:57.431Z,8.00
2023-01-17T15:14:05.930Z,8.48
2023-01-17T15:16:19.712Z,6.20
2023-01-17T15:18:31.430Z,8.30
2023-01-17T15:20:37.764Z,7.57
2023-01-17T15:22:42.710Z,8.10
2023-01-17T15:24:48.837Z,8.82
2023-01-17T15:26:54.757Z,5.05
2023-01-17T15:29:07.779Z,6.25
2023-01-17T15:31:18.865Z,8.32
2023-01-17T15:33:23.747Z,6.00
2023-01-17T15:35:31.277Z,7.05
2023-01-17T15:37:39.922Z,7.82
2023-01-17T15:39:44.905Z,9.73
2023-01-17T15:41:50.322Z,5.20
2023-01-17T15:43:57.775Z,6.63
2023-01-17T15:46:05.058Z,5.10
2023-01-17T15:48:36.327Z,7.22
2023-01-17T15:50:43.739Z,8.80
2023-01-17T15:52:53.964Z,7.07
2023-01-17T15:55:02.188Z,9.73
2023-01-17T15:57:18.188Z,12.25
2023-01-17T15:59:30.597Z,10.57
2023-01-17T16:01:35.669Z,10.43
2023-01-17T16:03:43.551Z,12.82
2023-01-17T16:05:52.545Z,13.20
2023-01-17T16:07:58.877Z,15.18
2023-01-17T16:10:17.797Z,10.23
2023-01-17T16:12:22.634Z,12.02
2023-01-17T16:14:30.683Z,9.43
2023-01-17T16:16:42.064Z,10.88
2023-01-17T16:18:47.524Z,9.27
2023-01-17T16:21:01.268Z,10.55
2023-01-17T16:23:06.431Z,9.60
2023-01-17T16:25:16.724Z,9.48
2023-01-17T16:27:21.682Z,11.82
2023-01-17T16:29:26.722Z,15.50
2023-01-17T16:31:31.550Z,14.43
2023-01-17T16:33:36.398Z,9.63
2023-01-17T16:35:42.693Z,12.27
2023-01-17T16:37:52.100Z,8.93
2023-01-17T16:39:57.235Z,12.15
2023-01-17T16:42:05.785Z,14.27
2023-01-17T16:44:10.939Z,12.65
2023-01-17T16:46:15.976Z,15.65
2023-01-17T16:48:21.338Z,15.35
2023-01-17T16:50:27.786Z,12.65
2023-01-17T16:52:32.711Z,10.68
2023-01-17T16:54:40.202Z,13.38
2023-01-17T16:56:45.124Z,8.80
2023-01-17T16:58:49.930Z,12.35
2023-01-17T17:00:56.686Z,14.60
2023-01-17T17:03:01.585Z,13.07
2023-01-17T17:05:07.477Z,10.85
2023-01-17T17:07:12.386Z,11.13
2023-01-17T17:09:18.391Z,10.80
2023-01-17T17:11:26.507Z,14.95
2023-01-17T17:13:31.464Z,13.95
2023-01-17T17:17:43.175Z,10.38
2023-01-17T17:19:50.037Z,12.80
2023-01-17T17:21:54.857Z,13.73
2023-01-17T17:24:01.922Z,12.13
2023-01-17T17:26:06.898Z,14.60
2023-01-17T17:28:15.498Z,12.68
2023-01-17T17:30:20.655Z,16.48
2023-01-17T17:32:25.611Z,14.63
2023-01-17T17:34:34.332Z,14.35
2023-01-17T17:36:40.211Z,14.40
2023-01-17T17:38:53.659Z,18.45
2023-01-17T17:40:58.676Z,12.88
2023-01-17T17:43:06.011Z,12.35
2023-01-17T17:45:14.326Z,17.30
2023-01-17T17:47:19.541Z,14.15
2023-01-17T17:51:31.007Z,12.30
2023-01-17T17:53:36.308Z,11.15
2023-01-17T17:55:41.140Z,12.20
2023-01-17T17:57:46.098Z,12.10
2023-01-17T17:59:50.990Z,9.43
2023-01-17T18:01:59.783Z,15.05
2023-01-17T18:04:07.566Z,11.82
2023-01-17T18:06:16.169Z,11.50
2023-01-17T18:08:21.556Z,8.80
2023-01-17T18:12:30.982Z,9.27
2023-01-17T18:14:36.273Z,11.80
2023-01-17T18:18:51.864Z,7.78
2023-01-17T18:20:56.734Z,9.80
2023-01-17T18:23:01.567Z,14.35
2023-01-17T18:25:13.983Z,13.75
2023-01-17T18:27:19.420Z,13.02
2023-01-17T18:31:31.107Z,12.65
2023-01-17T18:33:38.743Z,15.63
2023-01-17T18:36:00.159Z,14.98
2023-01-17T18:38:05.549Z,12.10
2023-01-17T18:42:18.022Z,12.40
2023-01-17T18:44:23.119Z,17.75
2023-01-17T18:46:29.265Z,14.65
2023-01-17T18:48:34.119Z,13.75
2023-01-17T18:50:38.956Z,11.82
2023-01-17T18:52:46.377Z,16.70
2023-01-17T18:54:53.106Z,14.82
2023-01-17T18:56:58.477Z,13.55
2023-01-17T18:59:05.835Z,14.23
2023-01-17T19:01:13.774Z,15.00
2023-01-17T19:03:19.976Z,15.43
2023-01-17T19:05:24.814Z,19.73
2023-01-17T19:07:32.512Z,16.75
2023-01-17T19:09:40.251Z,15.75
2023-01-17T19:11:46.322Z,16.60
2023-01-17T19:13:53.558Z,17.40
2023-01-17T19:16:02.813Z,14.32
2023-01-17T19:18:08.222Z,17.23
2023-01-17T19:20:15.782Z,15.90
2023-01-17T19:22:21.757Z,11.43
2023-01-17T19:24:27.373Z,12.55
2023-01-17T19:26:34.836Z,15.38
2023-01-17T19:28:41.389Z,14.10
2023-01-17T19:30:46.305Z,14.43
2023-01-17T19:32:53.904Z,13.48
2023-01-17T19:34:58.753Z,10.68
2023-01-17T19:37:03.700Z,12.05
2023-01-17T19:39:10.825Z,10.88
2023-01-17T19:41:17.593Z,10.02
2023-01-17T19:43:25.586Z,10.65
2023-01-17T19:45:30.500Z,11.40
2023-01-17T19:47:35.382Z,11.40
2023-01-17T19:49:42.541Z,13.48
2023-01-17T19:51:50.343Z,13.52
2023-01-17T19:53:55.657Z,13.57
2023-01-17T19:56:00.784Z,12.85
2023-01-17T19:58:05.601Z,11.82
2023-01-17T20:00:17.995Z,14.48
2023-01-17T20:02:23.224Z,11.10
2023-01-17T20:06:34.757Z,10.07
2023-01-17T20:08:40.208Z,12.30
2023-01-17T20:10:46.287Z,8.55
2023-01-17T20:12:52.497Z,12.35
2023-01-17T20:14:57.469Z,7.35
2023-01-17T20:17:05.070Z,10.15
2023-01-17T20:19:12.987Z,10.20
2023-01-17T20:21:19.984Z,8.18
2023-01-17T20:23:24.840Z,10.20
2023-01-17T20:25:29.831Z,13.75
2023-01-17T20:27:34.924Z,14.00
2023-01-17T20:29:42.576Z,9.38
2023-01-17T20:31:52.584Z,10.98
2023-01-17T20:34:00.074Z,10.38
2023-01-17T20:36:10.615Z,12.93
2023-01-17T20:38:15.838Z,10.73
2023-01-17T20:40:23.284Z,11.85
2023-01-17T20:42:28.275Z,12.60
2023-01-17T20:46:41.631Z,10.30
2023-01-17T20:48:47.766Z,9.00
2023-01-17T20:50:55.404Z,11.27
2023-01-17T20:53:00.287Z,14.07
2023-01-17T20:55:05.072Z,13.48
2023-01-17T20:57:09.966Z,15.05
2023-01-17T20:59:16.839Z,13.32
2023-01-17T21:01:22.203Z,13.07
2023-01-17T21:03:29.005Z,16.05
2023-01-17T21:05:33.852Z,14.68
2023-01-17T21:07:41.651Z,15.85
2023-01-17T21:09:46.440Z,13.23
2023-01-17T21:11:51.933Z,12.13
2023-01-17T21:13:57.497Z,13.48
2023-01-17T21:16:02.728Z,11.77
2023-01-17T21:20:16.818Z,14.70
2023-01-17T21:22:21.689Z,12.88
2023-01-17T21:24:29.468Z,15.35
2023-01-17T21:26:34.545Z,11.95
2023-01-17T21:28:40.979Z,11.82
2023-01-17T21:30:46.037Z,13.93
2023-01-17T21:32:50.836Z,11.95
2023-01-17T21:34:55.724Z,10.35
2023-01-17T21:37:00.599Z,10.27
2023-01-17T21:39:09.587Z,10.30
2023-01-17T21:41:17.203Z,11.93
2023-01-17T21:43:22.008Z,9.77
2023-01-17T21:45:32.256Z,9.50
2023-01-17T21:47:37.201Z,9.75
2023-01-17T21:49:42.019Z,10.05
2023-01-17T21:51:59.693Z,11.40
2023-01-17T21:54:04.596Z,8.98
2023-01-17T21:56:25.986Z,10.30
2023-01-17T21:58:45.943Z,9.32
2023-01-17T22:01:07.703Z,11.27
2023-01-17T22:03:12.626Z,13.10
2023-01-17T22:05:18.912Z,10.82
2023-01-17T22:07:25.333Z,14.18
2023-01-17T22:09:30.138Z,12.65
2023-01-17T22:11:34.951Z,13.88
2023-01-17T22:13:44.182Z,25.13
2023-01-17T22:15:59.793Z,15.13
2023-01-17T22:18:04.689Z,11.57
2023-01-17T22:20:11.822Z,10.93
2023-01-17T22:22:16.692Z,10.23
2023-01-17T22:24:21.742Z,12.05
2023-01-17T22:26:28.612Z,12.30
2023-01-17T22:28:34.712Z,11.75
2023-01-17T22:30:42.633Z,9.07
2023-01-17T22:32:47.811Z,10.55
2023-01-17T22:34:52.586Z,10.48
2023-01-17T22:36:57.572Z,8.90
2023-01-17T22:39:03.131Z,9.98
2023-01-17T22:41:10.632Z,9.65
2023-01-17T22:43:15.612Z,8.30
2023-01-17T22:45:20.583Z,7.78
2023-01-17T22:47:28.004Z,7.38
2023-01-17T22:49:32.929Z,8.68
2023-01-17T22:51:40.758Z,9.90
2023-01-17T22:53:47.990Z,8.88
2023-01-17T22:56:01.614Z,8.50
2023-01-17T22:58:06.916Z,10.00
2023-01-17T23:02:20.371Z,7.18
2023-01-17T23:04:28.409Z,7.85
2023-01-17T23:06:34.548Z,6.07
2023-01-17T23:08:40.032Z,7.75
2023-01-17T23:10:57.493Z,8.65
2023-01-17T23:13:02.438Z,7.55
2023-01-17T23:15:20.631Z,6.63
2023-01-17T23:17:39.485Z,6.65
2023-01-17T23:19:51.122Z,7.88
2023-01-17T23:22:12.166Z,7.50
2023-01-17T23:24:17.075Z,7.38
2023-01-17T23:26:21.825Z,7.43
2023-01-17T23:28:24.121Z,5.82
2023-01-17T23:30:30.262Z,10.15
2023-01-17T23:32:35.074Z,10.10
2023-01-17T23:34:39.993Z,6.28
2023-01-17T23:36:47.414Z,7.32
2023-01-17T23:38:49.756Z,6.28
2023-01-17T23:41:07.911Z,5.97
2023-01-17T23:43:28.432Z,8.20
2023-01-17T23:45:33.296Z,6.40
2023-01-17T23:47:38.123Z,7.78
2023-01-17T23:49:43.644Z,5.78
2023-01-17T23:51:53.048Z,6.00
2023-01-17T23:54:05.486Z,6.47
2023-01-17T23:56:16.758Z,5.85
2023-01-17T23:58:23.261Z,6.90
